Time;durP1;ratioP1;P1;durP2;ratioP2;P2;SDS_P1;SDS_P2;PMS_P1;PMS_P2;Temp;Humidity;BMP_temperature;BMP_pressure;BME280_temperature;BME280_humidity;BME280_pressure;Samples;Min_cycle;Max_cycle;Signal;HPM_P1;HPM_P2
2022/08/24 00:00:58;;;;;;;6.37;5.50;;;;;;;20.46;60.70;99497.34;4926636;29;20970;-73
2022/08/24 00:03:24;;;;;;;6.50;5.67;;;;;;;20.45;61.10;99495.69;4928983;29;20512;-73
2022/08/24 00:05:50;;;;;;;5.80;5.30;;;;;;;20.44;61.25;99496.69;4925969;29;20209;-74
2022/08/24 00:08:17;;;;;;;6.50;6.00;;;;;;;20.40;61.39;99506.84;4933039;29;20240;-73
2022/08/24 00:10:43;;;;;;;6.30;5.70;;;;;;;20.32;61.58;99505.00;4927136;29;20254;-73
2022/08/24 00:13:08;;;;;;;5.53;5.00;;;;;;;20.28;61.46;99505.47;4921555;29;20498;-73
2022/08/24 00:15:34;;;;;;;7.80;5.67;;;;;;;20.25;61.36;99508.47;4922961;29;20295;-74
2022/08/24 00:17:59;;;;;;;8.70;6.00;;;;;;;20.24;61.78;99517.47;4925354;29;20217;-74
2022/08/24 00:20:25;;;;;;;6.10;5.60;;;;;;;20.25;61.77;99519.16;4929062;29;20797;-72
2022/08/24 00:22:51;;;;;;;6.20;5.27;;;;;;;20.28;61.54;99513.47;4925954;29;20225;-73
2022/08/24 00:25:18;;;;;;;9.00;5.77;;;;;;;20.34;61.69;99512.84;4922506;29;20470;-72
2022/08/24 00:27:44;;;;;;;5.60;5.07;;;;;;;20.37;61.55;99509.84;4925883;29;20248;-73
2022/08/24 00:30:14;;;;;;;6.43;5.30;;;;;;;20.40;61.45;99508.69;4927895;29;20462;-73
2022/08/24 00:32:44;;;;;;;6.45;5.85;;;;;;;20.44;61.48;99510.88;4927249;29;20501;-73
2022/08/24 00:35:11;;;;;;;9.40;5.50;;;;;;;20.44;61.45;99510.03;4924606;29;20504;-73
2022/08/24 00:37:37;;;;;;;5.97;5.47;;;;;;;20.45;61.31;99515.22;4923363;29;20242;-73
2022/08/24 00:40:06;;;;;;;7.30;4.20;;;;;;;20.50;61.41;99512.06;4925764;29;20469;-73
2022/08/24 00:42:32;;;;;;;6.10;5.20;;;;;;;20.54;61.02;99508.91;4926640;29;20462;-73
2022/08/24 00:44:58;;;;;;;6.77;5.60;;;;;;;20.52;61.02;99513.56;4926889;29;21000;-73
2022/08/24 00:47:30;;;;;;;6.67;6.07;;;;;;;20.43;60.99;99511.88;4927527;29;20217;-72
2022/08/24 00:49:59;;;;;;;6.07;4.60;;;;;;;20.39;61.10;99505.19;4925466;29;20550;-73
2022/08/24 00:52:38;;;;;;;5.90;5.30;;;;;;;20.36;61.14;99508.19;4926222;29;20997;-73
2022/08/24 00:55:11;;;;;;;7.17;6.27;;;;;;;20.32;60.98;99504.16;4926084;29;20496;-74
2022/08/24 00:57:41;;;;;;;4.80;4.33;;;;;;;20.28;61.18;99511.66;4920855;29;21001;-73
2022/08/24 01:00:17;;;;;;;5.13;4.73;;;;;;;20.25;60.99;99512.00;4939647;29;20507;-73
2022/08/24 01:02:47;;;;;;;6.20;5.40;;;;;;;20.28;60.92;99514.34;4926930;29;20583;-73
2022/08/24 01:05:15;;;;;;;5.00;4.50;;;;;;;20.25;61.36;99519.16;4926949;29;20829;-73
2022/08/24 01:07:40;;;;;;;5.50;5.00;;;;;;;20.20;61.33;99514.31;4927164;29;20465;-73
2022/08/24 01:10:11;;;;;;;6.00;4.43;;;;;;;20.18;61.39;99507.47;4926888;29;20553;-73
2022/08/24 01:12:41;;;;;;;5.63;5.07;;;;;;;20.19;61.21;99509.97;4926006;29;20237;-72
2022/08/24 01:15:09;;;;;;;5.50;4.73;;;;;;;20.19;61.29;99512.63;4936333;29;20468;-73
2022/08/24 01:20:22;;;;;;;10.30;5.60;;;;;;;20.15;61.49;99518.47;4928125;29;20467;-73
2022/08/24 01:23:12;;;;;;;6.53;5.70;;;;;;;20.03;61.72;99512.56;4927859;29;20509;-73
2022/08/24 01:25:42;;;;;;;9.60;5.50;;;;;;;19.89;61.99;99511.34;4927167;29;20991;-73
2022/08/24 01:28:13;;;;;;;6.80;6.20;;;;;;;19.67;63.03;99516.25;4925221;29;20467;-73
2022/08/24 01:30:40;;;;;;;6.90;4.77;;;;;;;19.54;63.23;99517.63;4923080;29;20465;-73
2022/08/24 01:33:08;;;;;;;6.67;5.30;;;;;;;19.47;63.36;99520.09;4934716;29;20464;-73
2022/08/24 01:35:38;;;;;;;7.50;5.50;;;;;;;19.45;63.37;99520.25;4924576;29;20529;-73
2022/08/24 01:38:10;;;;;;;5.57;5.17;;;;;;;19.43;63.32;99522.22;4921454;29;20843;-73
2022/08/24 01:40:38;;;;;;;5.23;4.73;;;;;;;19.45;63.31;99516.75;4924628;29;20560;-72
2022/08/24 01:43:05;;;;;;;5.97;5.10;;;;;;;19.47;63.34;99514.78;4924474;29;20510;-72
2022/08/24 01:45:32;;;;;;;6.00;4.90;;;;;;;19.50;63.21;99519.78;4927388;29;20464;-73
2022/08/24 01:47:58;;;;;;;5.70;5.20;;;;;;;19.53;63.20;99508.81;4925092;29;20863;-73
2022/08/24 01:50:24;;;;;;;5.43;4.73;;;;;;;19.52;63.11;99514.28;4923052;29;20458;-72
2022/08/24 01:52:51;;;;;;;6.43;5.83;;;;;;;19.55;63.07;99516.63;4927168;29;21015;-73
2022/08/24 01:55:16;;;;;;;6.60;6.00;;;;;;;19.57;62.87;99520.81;4925221;29;20564;-72
2022/08/24 01:57:42;;;;;;;5.40;4.33;;;;;;;19.56;63.16;99513.00;4931101;29;20812;-73
2022/08/24 02:00:13;;;;;;;5.03;4.60;;;;;;;19.53;63.05;99513.31;4928167;29;20208;-73
2022/08/24 02:02:41;;;;;;;6.75;5.68;;;;;;;19.52;62.81;99515.13;4922258;29;20489;-73
2022/08/24 02:05:10;;;;;;;4.80;4.50;;;;;;;19.52;62.89;99519.59;4925430;29;20203;-74
2022/08/24 02:07:36;;;;;;;5.70;5.10;;;;;;;19.37;63.37;99506.88;4927351;29;20469;-72
2022/08/24 02:10:03;;;;;;;5.73;5.23;;;;;;;19.21;63.76;99510.25;4923168;29;20506;-73
2022/08/24 02:12:29;;;;;;;6.27;5.77;;;;;;;19.08;64.08;99509.00;4939520;29;20774;-73
2022/08/24 02:14:54;;;;;;;6.80;6.20;;;;;;;18.98;64.43;99509.06;4950307;23;20609;-75
2022/08/24 02:17:20;;;;;;;5.70;5.30;;;;;;;18.86;64.57;99516.47;4937600;29;20296;-75
2022/08/24 02:19:46;;;;;;;5.40;5.00;;;;;;;18.74;65.01;99520.31;4934495;29;20301;-75
2022/08/24 02:22:12;;;;;;;6.17;5.57;;;;;;;18.64;64.96;99511.59;4944889;28;20416;-75
2022/08/24 02:24:38;;;;;;;5.90;5.40;;;;;;;18.65;65.07;99521.22;4948954;28;20481;-77
2022/08/24 02:27:04;;;;;;;7.03;5.67;;;;;;;18.68;65.14;99520.91;4944454;28;20407;-76
2022/08/24 02:29:30;;;;;;;9.87;5.70;;;;;;;18.71;64.82;99517.94;4930346;29;20527;-76
2022/08/24 02:31:56;;;;;;;5.10;4.70;;;;;;;18.76;64.57;99529.00;4952627;28;20489;-76
2022/08/24 02:34:22;;;;;;;6.33;5.73;;;;;;;18.78;64.80;99527.88;4937361;29;20593;-77
2022/08/24 02:36:47;;;;;;;5.33;4.83;;;;;;;18.81;64.47;99526.72;4944558;29;20456;-77
2022/08/24 02:39:13;;;;;;;9.33;6.10;;;;;;;18.85;64.46;99521.94;4943271;28;20232;-77
2022/08/24 02:41:38;;;;;;;5.93;5.40;;;;;;;18.86;64.22;99512.97;4935376;29;20687;-76
2022/08/24 02:44:05;;;;;;;5.90;5.40;;;;;;;18.84;64.08;99513.13;4930162;29;20294;-77
2022/08/24 02:46:32;;;;;;;5.80;5.20;;;;;;;18.86;64.14;99516.47;4931831;28;20438;-76
2022/08/24 02:48:58;;;;;;;5.80;5.30;;;;;;;18.90;63.95;99512.53;4940915;29;20472;-77
2022/08/24 02:51:27;;;;;;;5.20;4.80;;;;;;;18.95;63.55;99509.38;4944237;29;20455;-77
2022/08/24 02:53:53;;;;;;;6.13;5.53;;;;;;;18.96;63.67;99506.59;4944897;28;20226;-77
2022/08/24 02:56:22;;;;;;;5.87;4.77;;;;;;;18.97;63.42;99512.72;4960181;28;20975;-77
2022/08/24 02:58:47;;;;;;;5.17;4.77;;;;;;;18.95;63.67;99515.53;4944234;28;20484;-77
2022/08/24 03:01:13;;;;;;;5.80;4.87;;;;;;;18.94;63.43;99507.72;4945561;28;20746;-77
2022/08/24 03:03:40;;;;;;;5.10;4.70;;;;;;;18.93;63.39;99514.88;4952593;28;20212;-77
2022/08/24 03:06:07;;;;;;;6.07;5.47;;;;;;;18.93;63.33;99511.34;4945144;28;20480;-77
2022/08/24 03:08:34;;;;;;;5.50;5.03;;;;;;;18.88;63.60;99511.00;4941857;28;20507;-77
2022/08/24 03:11:00;;;;;;;6.07;5.47;;;;;;;18.73;63.88;99513.31;4962187;28;20541;-77
2022/08/24 03:13:27;;;;;;;6.10;5.50;;;;;;;18.57;64.43;99516.66;4954033;28;20787;-77
2022/08/24 03:15:54;;;;;;;5.30;4.80;;;;;;;18.44;64.61;99517.03;4945991;28;20921;-76
2022/08/24 03:18:20;;;;;;;5.20;4.80;;;;;;;18.42;64.96;99512.88;4945658;28;20520;-76
2022/08/24 03:20:46;;;;;;;5.60;4.90;;;;;;;18.46;64.74;99514.22;4943080;28;20943;-76
2022/08/24 03:23:11;;;;;;;5.73;5.13;;;;;;;18.48;64.60;99512.25;4953065;28;20458;-76
2022/08/24 03:25:37;;;;;;;5.40;4.90;;;;;;;18.47;64.55;99510.56;4959673;28;20299;-76
2022/08/24 03:28:02;;;;;;;6.00;5.40;;;;;;;18.47;64.24;99508.75;4958983;28;20642;-76
2022/08/24 03:30:28;;;;;;;9.83;5.47;;;;;;;18.46;64.11;99501.75;4939261;28;20681;-76
2022/08/24 03:32:54;;;;;;;5.93;4.63;;;;;;;18.46;64.22;99509.72;4939737;28;20673;-76
2022/08/24 03:35:21;;;;;;;6.17;5.17;;;;;;;18.45;64.18;99510.72;4951844;28;20205;-76
2022/08/24 03:37:50;;;;;;;5.53;4.50;;;;;;;18.44;63.98;99506.38;4943419;28;20185;-77
2022/08/24 03:40:16;;;;;;;5.90;5.40;;;;;;;18.44;63.99;99510.88;4948134;28;20496;-76
2022/08/24 03:42:41;;;;;;;6.00;5.40;;;;;;;18.45;63.79;99499.25;4941654;28;20418;-76
2022/08/24 03:45:08;;;;;;;5.80;5.00;;;;;;;18.47;63.83;99499.94;4961663;28;20968;-76
2022/08/24 03:47:34;;;;;;;7.33;6.00;;;;;;;18.50;63.43;99502.31;4962699;28;20187;-76
2022/08/24 03:50:00;;;;;;;6.77;5.93;;;;;;;18.52;63.43;99502.97;4957504;28;20416;-76
2022/08/24 03:52:26;;;;;;;5.50;5.10;;;;;;;18.52;63.24;99501.19;4961752;28;20737;-76
2022/08/24 03:54:52;;;;;;;6.23;5.63;;;;;;;18.54;63.41;99506.31;4944464;28;20479;-76
2022/08/24 03:57:17;;;;;;;7.43;5.53;;;;;;;18.53;62.93;99508.16;4944937;28;20260;-76
2022/08/24 03:59:43;;;;;;;5.80;5.27;;;;;;;18.44;63.19;99505.53;4953542;28;20189;-76
2022/08/24 04:02:08;;;;;;;5.07;4.67;;;;;;;18.28;63.47;99514.19;4946308;28;20184;-76
2022/08/24 04:04:34;;;;;;;5.63;5.13;;;;;;;18.12;64.09;99507.72;4950810;28;20209;-76
2022/08/24 04:07:00;;;;;;;5.40;4.90;;;;;;;18.05;64.24;99519.09;4960896;28;20205;-77
2022/08/24 04:09:26;;;;;;;5.50;5.00;;;;;;;17.97;64.30;99514.50;4962953;28;20457;-76
2022/08/24 04:11:52;;;;;;;5.67;5.20;;;;;;;17.88;64.67;99510.09;4947042;28;20849;-76
2022/08/24 04:14:19;;;;;;;7.43;5.97;;;;;;;17.79;64.84;99522.41;4963016;28;20250;-76
2022/08/24 04:16:48;;;;;;;5.50;5.10;;;;;;;17.72;64.94;99526.63;4964780;28;20468;-76
2022/08/24 04:19:22;;;;;;;5.13;4.73;;;;;;;17.61;65.26;99519.66;4961453;28;20498;-76
2022/08/24 04:21:47;;;;;;;6.33;5.73;;;;;;;17.51;65.31;99528.63;4960730;28;20999;-76
2022/08/24 04:24:15;;;;;;;5.13;4.47;;;;;;;17.45;65.44;99525.56;4946821;28;20609;-76
2022/08/24 04:26:41;;;;;;;6.63;6.00;;;;;;;17.44;65.32;99523.91;4960379;28;20468;-77
2022/08/24 04:29:10;;;;;;;5.77;5.27;;;;;;;17.48;65.33;99525.28;4964331;28;20199;-76
2022/08/24 04:31:42;;;;;;;6.57;5.97;;;;;;;17.55;65.37;99519.38;4944481;28;21202;-76
2022/08/24 04:34:10;;;;;;;5.00;4.60;;;;;;;17.49;65.54;99523.44;4944309;28;20227;-77
2022/08/24 04:36:39;;;;;;;6.40;5.90;;;;;;;17.48;65.57;99535.06;4942239;28;20491;-77
2022/08/24 04:39:04;;;;;;;10.50;5.67;;;;;;;17.46;65.94;99532.53;4961295;28;20732;-77
2022/08/24 04:42:10;;;;;;;5.50;5.00;;;;;;;17.42;65.83;99531.16;4939353;28;20543;-75
2022/08/24 04:44:38;;;;;;;6.33;5.63;;;;;;;17.38;65.91;99535.06;4962432;28;20479;-77
2022/08/24 04:47:04;;;;;;;6.20;5.60;;;;;;;17.37;65.93;99530.75;4958835;28;20874;-77
2022/08/24 04:49:31;;;;;;;5.57;5.07;;;;;;;17.36;65.88;99536.19;4945665;28;20208;-77
2022/08/24 04:51:57;;;;;;;7.47;6.10;;;;;;;17.37;66.01;99537.91;4965409;28;20250;-77
2022/08/24 04:54:23;;;;;;;9.97;5.50;;;;;;;17.39;65.89;99530.59;4948421;28;21011;-77
2022/08/24 04:57:01;;;;;;;6.10;5.33;;;;;;;17.39;65.89;99531.47;4959523;28;20703;-77
2022/08/24 04:59:26;;;;;;;6.90;5.57;;;;;;;17.44;65.64;99531.88;4960906;28;20459;-77
2022/08/24 05:01:52;;;;;;;6.80;6.10;;;;;;;17.53;65.45;99534.66;4946670;28;20663;-77
2022/08/24 05:04:17;;;;;;;6.03;5.50;;;;;;;17.59;65.00;99545.53;4956876;28;20217;-76
2022/08/24 05:06:43;;;;;;;6.70;6.00;;;;;;;17.68;65.04;99551.78;4944848;28;20311;-77
2022/08/24 05:09:09;;;;;;;7.23;5.90;;;;;;;17.86;64.29;99549.25;4955707;28;20211;-77
2022/08/24 05:11:36;;;;;;;6.20;5.70;;;;;;;18.09;63.50;99544.38;4961947;28;20237;-77
2022/08/24 05:14:02;;;;;;;6.83;5.93;;;;;;;18.45;62.52;99545.31;4945567;28;20201;-77
2022/08/24 05:16:31;;;;;;;6.57;6.03;;;;;;;18.96;61.45;99545.69;4947260;28;20972;-77
2022/08/24 05:18:56;;;;;;;5.43;4.93;;;;;;;19.51;59.83;99547.25;4962776;28;20463;-77
2022/08/24 05:21:23;;;;;;;6.37;5.87;;;;;;;20.08;58.29;99545.75;4958829;28;20742;-77
2022/08/24 05:23:51;;;;;;;6.47;5.77;;;;;;;20.58;57.26;99543.28;4961753;28;20213;-77
2022/08/24 05:26:23;;;;;;;4.80;4.40;;;;;;;20.94;55.96;99535.81;4955010;28;20567;-77
2022/08/24 05:28:52;;;;;;;5.50;5.07;;;;;;;21.06;55.50;99530.97;4937442;28;21020;-77
2022/08/24 05:31:20;;;;;;;5.70;5.20;;;;;;;21.28;54.93;99538.34;4957894;28;20487;-77
2022/08/24 05:33:47;;;;;;;5.22;4.82;;;;;;;21.55;53.71;99539.84;4950141;28;20573;-77
2022/08/24 05:36:27;;;;;;;5.77;5.27;;;;;;;21.77;53.29;99548.97;4957835;28;20238;-77
2022/08/24 05:38:55;;;;;;;5.23;4.53;;;;;;;22.00;52.32;99534.84;4935805;28;20501;-78
2022/08/24 05:41:21;;;;;;;5.47;4.97;;;;;;;22.03;52.40;99542.53;4940291;28;20457;-77
2022/08/24 05:43:54;;;;;;;5.77;5.17;;;;;;;21.89;52.28;99538.72;4959083;28;20455;-78
2022/08/24 05:46:20;;;;;;;5.57;4.90;;;;;;;21.59;53.15;99551.00;4945578;28;20557;-78
2022/08/24 05:48:47;;;;;;;4.80;4.40;;;;;;;21.48;53.56;99543.34;4941825;28;20497;-77
2022/08/24 05:51:29;;;;;;;5.47;5.07;;;;;;;21.41;53.79;99543.16;4950283;28;20541;-77
2022/08/24 05:54:00;;;;;;;5.07;4.77;;;;;;;21.38;53.99;99544.34;4955524;28;20465;-77
2022/08/24 05:56:34;;;;;;;5.70;5.20;;;;;;;21.17;54.42;99544.84;4940949;28;20799;-77
2022/08/24 05:59:00;;;;;;;6.20;5.60;;;;;;;20.95;54.84;99546.34;4955439;28;20475;-77
2022/08/24 06:01:27;;;;;;;5.63;4.87;;;;;;;20.86;55.17;99555.34;4950220;28;20471;-77
2022/08/24 06:03:54;;;;;;;6.15;5.65;;;;;;;20.80;55.97;99548.00;4951404;28;20490;-77
2022/08/24 06:06:22;;;;;;;6.93;6.23;;;;;;;20.58;56.47;99554.81;4956838;28;20672;-77
2022/08/24 06:08:54;;;;;;;7.17;5.67;;;;;;;20.73;56.33;99558.47;4955474;28;20489;-77
2022/08/24 06:11:27;;;;;;;5.73;5.23;;;;;;;21.24;55.30;99544.16;4956407;28;20997;-77
2022/08/24 06:13:54;;;;;;;9.37;5.03;;;;;;;21.88;53.57;99548.59;4938345;28;20496;-77
2022/08/24 06:16:21;;;;;;;5.03;4.50;;;;;;;22.77;51.48;99545.69;4950013;28;21128;-77
2022/08/24 06:18:48;;;;;;;5.53;4.97;;;;;;;23.51;49.58;99542.41;4940537;28;21168;-77
2022/08/24 06:21:17;;;;;;;4.70;4.30;;;;;;;24.16;47.71;99544.38;4957147;28;20288;-79
2022/08/24 06:23:43;;;;;;;7.63;5.00;;;;;;;24.76;46.22;99538.91;4956561;28;20474;-77
2022/08/24 06:28:55;;;;;;;4.50;4.10;;;;;;;25.34;43.85;99542.34;4956706;28;20205;-77
2022/08/24 06:31:23;;;;;;;4.20;3.80;;;;;;;25.71;43.59;99535.78;4957457;28;20486;-78
2022/08/24 06:33:49;;;;;;;4.43;3.80;;;;;;;26.27;42.52;99534.84;4941357;28;20463;-78
2022/08/24 06:36:15;;;;;;;6.30;4.93;;;;;;;26.62;41.76;99540.16;4958277;28;20466;-78
2022/08/24 06:38:40;;;;;;;4.70;4.17;;;;;;;26.93;41.29;99535.03;4958049;28;20208;-78
2022/08/24 06:41:07;;;;;;;4.70;4.20;;;;;;;27.29;40.69;99533.00;4942473;28;20224;-78
2022/08/24 06:43:33;;;;;;;4.67;4.27;;;;;;;27.44;40.29;99535.50;4943782;28;20282;-78
2022/08/24 06:46:02;;;;;;;4.37;3.93;;;;;;;27.67;39.23;99532.34;4949360;28;20969;-78
2022/08/24 06:48:33;;;;;;;4.00;3.60;;;;;;;27.92;38.57;99541.47;4944111;28;20461;-78
2022/08/24 06:50:59;;;;;;;4.47;3.60;;;;;;;28.10;37.95;99539.94;4945179;28;20465;-78
2022/08/24 06:53:26;;;;;;;4.73;4.30;;;;;;;28.01;38.16;99536.66;4962730;28;20921;-78
2022/08/24 06:55:57;;;;;;;4.80;4.37;;;;;;;27.55;38.17;99533.00;4943721;28;20489;-77
2022/08/24 06:58:24;;;;;;;4.40;4.00;;;;;;;26.89;39.40;99528.41;4961037;28;20464;-77
2022/08/24 07:00:50;;;;;;;4.97;4.57;;;;;;;26.28;40.22;99541.91;4939202;28;20465;-77
2022/08/24 07:03:17;;;;;;;5.80;5.20;;;;;;;25.79;41.41;99551.78;4957593;28;21095;-77
2022/08/24 07:05:54;;;;;;;5.03;4.67;;;;;;;25.24;42.48;99548.06;4943638;28;20573;-77
2022/08/24 07:08:50;;;;;;;5.53;5.03;;;;;;;24.79;43.64;99551.94;4943111;28;20467;-77
2022/08/24 07:11:17;;;;;;;7.00;5.43;;;;;;;24.50;44.06;99557.22;4951572;28;20487;-77
2022/08/24 07:13:45;;;;;;;6.40;5.80;;;;;;;24.34;44.78;99554.72;4950913;28;21021;-77
2022/08/24 07:16:13;;;;;;;6.00;5.27;;;;;;;24.25;44.94;99561.25;4958244;28;20486;-77
2022/08/24 07:18:39;;;;;;;5.53;5.13;;;;;;;24.36;45.08;99560.75;4958163;28;20465;-77
2022/08/24 07:21:05;;;;;;;6.57;5.33;;;;;;;24.85;44.33;99554.72;4940285;28;20463;-77
2022/08/24 07:23:54;;;;;;;11.33;5.63;;;;;;;25.60;43.02;99555.19;4940736;28;20467;-78
2022/08/24 07:26:22;;;;;;;5.80;4.30;;;;;;;26.17;41.66;99555.94;4943988;28;20471;-76
2022/08/24 07:28:52;;;;;;;4.50;4.03;;;;;;;26.73;40.67;99560.28;4942879;28;21022;-77
2022/08/24 07:31:19;;;;;;;4.33;3.93;;;;;;;27.23;39.58;99550.84;4958000;28;20486;-78
2022/08/24 07:33:52;;;;;;;4.73;4.33;;;;;;;27.97;37.56;99557.00;4942902;28;20890;-79
2022/08/24 07:36:18;;;;;;;4.80;4.40;;;;;;;28.32;36.83;99549.41;4959769;28;20557;-78
2022/08/24 07:38:44;;;;;;;4.20;3.77;;;;;;;28.59;36.63;99554.72;4958670;28;20238;-78
2022/08/24 07:41:09;;;;;;;4.47;4.07;;;;;;;28.94;35.80;99548.88;4942778;28;20198;-77
2022/08/24 07:43:35;;;;;;;4.83;4.43;;;;;;;29.21;35.31;99554.94;4959458;28;20566;-77
2022/08/24 07:46:01;;;;;;;4.70;4.30;;;;;;;29.57;34.57;99546.13;4958867;28;20805;-78
2022/08/24 07:48:27;;;;;;;4.60;4.20;;;;;;;29.88;34.37;99547.06;4963363;28;20205;-77
2022/08/24 07:50:54;;;;;;;4.30;3.90;;;;;;;29.97;34.10;99551.13;4963487;28;20686;-78
2022/08/24 07:53:20;;;;;;;4.60;3.80;;;;;;;30.13;33.67;99545.09;4959377;28;20466;-78
2022/08/24 07:55:55;;;;;;;4.67;4.30;;;;;;;30.29;33.34;99540.97;4947130;28;20981;-78
2022/08/24 07:58:21;;;;;;;4.30;4.00;;;;;;;30.45;32.57;99557.66;4947520;28;20574;-78
2022/08/24 08:00:48;;;;;;;7.20;4.33;;;;;;;30.73;32.56;99555.19;4945066;28;20469;-78
2022/08/24 08:03:13;;;;;;;4.00;3.63;;;;;;;30.99;32.23;99542.31;4956779;28;20336;-78
2022/08/24 08:05:42;;;;;;;4.50;3.73;;;;;;;31.10;31.54;99541.50;4961396;28;20563;-78
2022/08/24 08:08:08;;;;;;;4.60;4.20;;;;;;;31.09;31.84;99537.97;4947567;28;20202;-78
2022/08/24 08:10:35;;;;;;;4.50;4.20;;;;;;;31.01;31.96;99535.59;4948330;28;20625;-77
2022/08/24 08:13:02;;;;;;;4.10;3.80;;;;;;;31.03;31.89;99538.09;4962180;28;20482;-78
2022/08/24 08:15:28;;;;;;;5.67;5.17;;;;;;;30.93;32.10;99546.78;4944290;28;21032;-79
2022/08/24 08:18:02;;;;;;;4.93;4.10;;;;;;;30.91;32.21;99545.38;4961273;28;20472;-76
2022/08/24 08:20:29;;;;;;;4.60;3.97;;;;;;;30.95;32.05;99547.38;4963299;28;21251;-78
2022/08/24 08:25:56;;;;;;;6.80;4.10;;;;;;;31.25;32.06;99535.66;4959406;28;20477;-76
2022/08/24 08:28:32;;;;;;;4.57;4.27;;;;;;;31.30;32.01;99542.00;4962176;28;20463;-77
2022/08/24 08:31:02;;;;;;;4.50;4.20;;;;;;;31.26;31.61;99540.81;4962311;28;20918;-77
2022/08/24 08:33:30;;;;;;;5.03;4.50;;;;;;;31.12;32.13;99541.28;4946840;28;20231;-79
2022/08/24 08:36:04;;;;;;;5.03;4.57;;;;;;;30.83;32.86;99547.34;4943413;28;20488;-77
2022/08/24 08:38:30;;;;;;;5.10;4.40;;;;;;;30.51;33.02;99533.16;4960062;28;20454;-79
2022/08/24 08:41:16;;;;;;;4.90;4.20;;;;;;;30.35;33.22;99542.78;4961018;28;20454;-79
2022/08/24 08:44:04;;;;;;;4.70;4.30;;;;;;;30.25;33.73;99536.25;4944424;28;20508;-77
2022/08/24 08:46:48;;;;;;;4.53;4.20;;;;;;;30.20;33.99;99540.44;4959801;28;20500;-77
2022/08/24 08:49:53;;;;;;;5.93;4.43;;;;;;;30.17;34.16;99543.59;4959137;28;20767;-77
2022/08/24 08:52:47;;;;;;;4.83;4.10;;;;;;;30.28;34.07;99536.63;4962858;28;21290;-76
2022/08/24 08:55:21;;;;;;;7.13;4.73;;;;;;;30.23;34.09;99533.75;4961598;28;20472;-78
2022/08/24 08:58:28;;;;;;;4.93;4.53;;;;;;;30.18;34.13;99536.28;4962041;28;21141;-79
2022/08/24 09:01:02;;;;;;;5.03;4.63;;;;;;;30.07;34.41;99532.47;4959325;28;20480;-79
2022/08/24 09:03:50;;;;;;;5.13;4.73;;;;;;;30.05;34.33;99529.16;4956814;28;20449;-80
2022/08/24 09:06:56;;;;;;;4.70;4.40;;;;;;;30.20;34.25;99529.59;4956966;28;20459;-77
2022/08/24 09:09:44;;;;;;;5.07;4.57;;;;;;;30.39;33.74;99530.41;4963126;28;20465;-79
2022/08/24 09:12:10;;;;;;;5.03;4.63;;;;;;;30.45;33.89;99522.44;4963866;28;20494;-79
2022/08/24 09:14:58;;;;;;;5.07;4.50;;;;;;;30.51;33.79;99524.22;4944822;28;20574;-78
2022/08/24 09:17:45;;;;;;;5.23;4.10;;;;;;;30.50;33.74;99523.41;4962293;28;20656;-79
2022/08/24 09:20:48;;;;;;;5.10;4.53;;;;;;;30.47;34.31;99517.63;4946963;28;20461;-77
2022/08/24 09:23:43;;;;;;;5.03;4.47;;;;;;;30.43;34.54;99518.09;4947842;28;20903;-80
2022/08/24 09:26:16;;;;;;;5.57;5.00;;;;;;;30.50;34.52;99526.09;4963293;28;20461;-78
2022/08/24 09:28:47;;;;;;;4.50;4.10;;;;;;;30.56;34.52;99511.63;4943728;28;20490;-77
2022/08/24 09:31:30;;;;;;;5.33;4.40;;;;;;;30.64;34.11;99522.13;4955210;28;20477;-79
2022/08/24 09:34:21;;;;;;;4.88;4.03;;;;;;;30.77;32.95;99514.88;4956730;28;20526;-75
2022/08/24 09:37:11;;;;;;;7.73;4.67;;;;;;;30.84;33.41;99513.75;4949276;28;20815;-78
2022/08/24 09:40:05;;;;;;;4.50;4.10;;;;;;;30.96;32.81;99510.25;4951882;28;20461;-75
2022/08/24 09:43:02;;;;;;;4.30;4.00;;;;;;;31.03;32.47;99506.34;4957062;28;20870;-78
2022/08/24 09:45:43;;;;;;;4.40;4.00;;;;;;;31.08;32.74;99498.34;4957695;28;20504;-78
2022/08/24 09:48:24;;;;;;;5.60;4.43;;;;;;;31.23;32.70;99494.34;4954592;28;20552;-79
2022/08/24 09:50:56;;;;;;;4.60;4.17;;;;;;;31.42;32.68;99490.47;4955087;28;20466;-76
2022/08/24 09:53:31;;;;;;;4.33;3.93;;;;;;;31.60;32.23;99488.69;4946286;28;20500;-78
2022/08/24 09:56:03;;;;;;;5.43;4.93;;;;;;;31.75;32.11;99480.84;4959104;28;20501;-79
2022/08/24 09:58:41;;;;;;;4.20;3.90;;;;;;;31.80;31.75;99483.69;4958603;28;20541;-79
2022/08/24 10:01:32;;;;;;;4.20;3.80;;;;;;;31.85;30.92;99480.25;4955196;28;20480;-79
2022/08/24 10:04:22;;;;;;;3.90;3.60;;;;;;;31.91;31.14;99482.81;4954294;28;20472;-77
2022/08/24 10:06:53;;;;;;;4.23;3.83;;;;;;;32.00;30.36;99469.75;4954182;28;20464;-79
2022/08/24 10:09:29;;;;;;;4.20;3.80;;;;;;;32.09;30.23;99464.75;4955728;28;20465;-77
2022/08/24 10:12:06;;;;;;;3.50;3.30;;;;;;;32.33;30.06;99454.59;4951595;28;20485;-77
2022/08/24 10:14:56;;;;;;;3.73;3.30;;;;;;;32.50;29.19;99458.19;4956084;28;20822;-77
2022/08/24 10:17:41;;;;;;;6.17;3.60;;;;;;;32.59;29.01;99458.63;4958913;28;20848;-79
2022/08/24 10:20:24;;;;;;;3.53;3.23;;;;;;;32.65;28.29;99457.66;4957881;28;20869;-76
2022/08/24 10:23:08;;;;;;;3.33;2.53;;;;;;;32.81;27.65;99448.69;4960309;28;20905;-79
2022/08/24 10:25:46;;;;;;;3.70;3.40;;;;;;;32.89;26.21;99443.88;4956698;28;20485;-77
2022/08/24 10:28:34;;;;;;;2.80;2.60;;;;;;;32.87;25.81;99443.31;4955039;28;20979;-79
2022/08/24 10:31:05;;;;;;;3.97;2.63;;;;;;;32.94;25.11;99433.88;4942787;28;20458;-77
2022/08/24 10:33:49;;;;;;;2.83;2.30;;;;;;;33.04;24.78;99434.09;4953206;28;20558;-77
2022/08/24 10:36:53;;;;;;;3.57;3.10;;;;;;;33.13;25.07;99431.75;4952644;28;20486;-77
2022/08/24 10:39:58;;;;;;;3.43;2.30;;;;;;;33.15;23.47;99432.34;4944787;28;20466;-77
2022/08/24 10:45:30;;;;;;;5.07;1.77;;;;;;;33.05;20.43;99430.31;4951184;28;20480;-78
2022/08/24 10:48:40;;;;;;;3.83;1.70;;;;;;;32.82;19.23;99425.00;4952303;28;20974;-78
2022/08/24 10:51:26;;;;;;;1.83;1.63;;;;;;;32.74;20.16;99431.69;4954239;28;21055;-79
2022/08/24 10:53:53;;;;;;;2.03;1.50;;;;;;;32.73;19.87;99427.31;4956206;28;20978;-78
2022/08/24 10:56:30;;;;;;;3.73;1.80;;;;;;;32.92;19.42;99413.44;4958393;28;20461;-78
2022/08/24 10:58:59;;;;;;;3.20;1.63;;;;;;;32.85;18.54;99413.63;4958434;28;20468;-77
2022/08/24 11:01:32;;;;;;;2.07;1.60;;;;;;;32.94;18.73;99424.91;4953630;28;20485;-78
2022/08/24 11:04:10;;;;;;;2.40;1.73;;;;;;;32.84;19.00;99420.16;4951464;28;20462;-77
2022/08/24 11:06:42;;;;;;;1.80;1.53;;;;;;;32.85;18.44;99424.50;4952733;28;20517;-78
2022/08/24 11:09:09;;;;;;;2.27;1.90;;;;;;;32.80;18.51;99427.97;4954778;28;20535;-78
2022/08/24 11:11:37;;;;;;;4.53;1.90;;;;;;;32.78;19.13;99430.13;4952474;28;20858;-78
2022/08/24 11:14:25;;;;;;;1.90;1.80;;;;;;;32.78;19.21;99421.97;4954644;28;20488;-78
2022/08/24 11:16:51;;;;;;;3.03;2.13;;;;;;;32.72;19.20;99425.66;4956511;28;20480;-77
2022/08/24 11:19:31;;;;;;;2.60;1.97;;;;;;;32.59;18.92;99428.69;4955815;28;20628;-77
2022/08/24 11:22:00;;;;;;;2.43;1.80;;;;;;;32.55;18.79;99427.56;4956174;28;20212;-77
2022/08/24 11:24:41;;;;;;;2.03;1.83;;;;;;;32.69;18.77;99414.47;4961273;28;20489;-78
2022/08/24 11:27:15;;;;;;;2.10;1.90;;;;;;;32.74;18.90;99415.38;4959105;28;20587;-77
2022/08/24 11:29:50;;;;;;;1.83;1.60;;;;;;;32.60;18.83;99419.50;4960527;28;20477;-78
2022/08/24 11:32:50;;;;;;;2.23;2.13;;;;;;;32.45;19.32;99420.00;4961642;28;20511;-78
2022/08/24 11:35:22;;;;;;;3.13;1.97;;;;;;;32.50;19.09;99416.59;4948712;28;20488;-78
2022/08/24 11:37:50;;;;;;;2.70;2.13;;;;;;;32.60;19.50;99412.16;4962643;28;20473;-78
2022/08/24 11:40:18;;;;;;;2.10;1.87;;;;;;;32.68;19.38;99416.34;4960430;28;21032;-77
2022/08/24 11:43:02;;;;;;;2.63;2.17;;;;;;;32.72;19.67;99395.75;4962342;28;20489;-77
2022/08/24 11:45:39;;;;;;;3.10;2.00;;;;;;;32.77;19.52;99401.25;4966139;28;20485;-78
2022/08/24 11:48:07;;;;;;;1.97;1.70;;;;;;;32.71;19.39;99410.41;4960528;28;20476;-77
2022/08/24 11:51:00;;;;;;;2.73;2.07;;;;;;;32.73;19.56;99416.44;4962382;28;20860;-78
2022/08/24 11:53:53;;;;;;;3.10;2.60;;;;;;;32.60;19.34;99408.63;4957747;28;20489;-77
2022/08/24 11:57:09;;;;;;;3.40;2.10;;;;;;;32.45;19.24;99405.59;4961520;28;20477;-77
2022/08/24 11:59:38;;;;;;;3.00;2.30;;;;;;;32.47;19.77;99406.22;4903541;29;20842;-78
2022/08/24 12:02:17;;;;;;;1.90;1.63;;;;;;;32.39;19.02;99399.25;4953406;28;20531;-80
2022/08/24 12:04:52;;;;;;;2.17;1.77;;;;;;;32.40;19.38;99403.59;4958598;28;20624;-78
2022/08/24 12:07:46;;;;;;;3.77;2.00;;;;;;;32.40;19.46;99404.44;4958840;28;20825;-78